createdAt,value
2023-01-10T00:02:29.464Z,98551.55
2023-01-10T00:12:53.319Z,98558.23
2023-01-10T00:22:59.270Z,98569.14
2023-01-10T00:33:06.104Z,98573.74
2023-01-10T00:43:30.277Z,98573.38
2023-01-10T00:53:36.018Z,98581.87
2023-01-10T01:03:41.777Z,98596.67
2023-01-10T01:13:47.579Z,98613.75
2023-01-10T01:23:53.483Z,98616.08
2023-01-10T01:33:59.200Z,98627.02
2023-01-10T01:44:11.537Z,98644.40
2023-01-10T01:54:19.637Z,98655.06
2023-01-10T02:04:30.659Z,98665.67
2023-01-10T02:14:37.980Z,98668.23
2023-01-10T02:25:33.033Z,98666.07
2023-01-10T02:36:03.540Z,98667.55
2023-01-10T02:46:15.650Z,98679.46
2023-01-10T02:56:57.943Z,98695.52
2023-01-10T03:07:10.931Z,98699.23
2023-01-10T03:17:19.424Z,98706.11
2023-01-10T03:27:34.548Z,98720.97
2023-01-10T03:37:46.827Z,98729.63
2023-01-10T03:47:56.598Z,98745.98
2023-01-10T03:58:02.105Z,98757.63
2023-01-10T04:08:08.339Z,98774.58
2023-01-10T04:18:15.956Z,98790.88
2023-01-10T04:28:23.803Z,98806.56
2023-01-10T04:38:30.300Z,98816.48
2023-01-10T04:48:37.406Z,98830.59
2023-01-10T04:58:41.566Z,98849.39
2023-01-10T05:08:48.048Z,98872.60
2023-01-10T05:18:54.037Z,98892.60
2023-01-10T05:28:59.672Z,98899.52
2023-01-10T05:39:06.274Z,98911.14
2023-01-10T05:49:12.041Z,98929.09
2023-01-10T05:59:28.137Z,98951.27
2023-01-10T06:09:34.131Z,98977.48
2023-01-10T06:19:39.932Z,98993.79
2023-01-10T06:29:45.708Z,99010.31
2023-01-10T06:39:52.033Z,99028.80
2023-01-10T06:49:57.801Z,99044.85
2023-01-10T07:00:03.704Z,99066.82
2023-01-10T07:10:11.598Z,99084.74
2023-01-10T07:20:17.701Z,99090.92
2023-01-10T07:30:25.331Z,99107.11
2023-01-10T07:40:31.837Z,99129.03
2023-01-10T07:50:38.609Z,99135.20
2023-01-10T08:00:46.100Z,99147.24
2023-01-10T08:10:51.917Z,99159.85
2023-01-10T08:20:58.143Z,99169.32
2023-01-10T08:31:09.282Z,99188.14
2023-01-10T08:41:15.315Z,99195.06
2023-01-10T08:51:21.777Z,99197.68
2023-01-10T09:01:27.765Z,99199.63
2023-01-10T09:11:33.754Z,99203.43
2023-01-10T09:21:39.581Z,99207.19
2023-01-10T09:31:45.226Z,99219.80
2023-01-10T09:42:06.700Z,99227.43
2023-01-10T09:52:21.219Z,99231.90
2023-01-10T10:02:32.147Z,99227.08
2023-01-10T10:12:47.222Z,99228.69
2023-01-10T10:23:04.728Z,99239.07
2023-01-10T10:33:26.741Z,99255.45
2023-01-10T10:43:36.613Z,99264.77
2023-01-10T10:53:42.402Z,99285.01
2023-01-10T11:03:52.774Z,99288.52
2023-01-10T11:14:00.872Z,99294.05
2023-01-10T11:24:20.043Z,99302.76
2023-01-10T11:34:30.655Z,99320.55
2023-01-10T11:44:36.321Z,99333.58
2023-01-10T11:54:44.083Z,99343.83
2023-01-10T12:04:53.937Z,99352.67
2023-01-10T12:15:01.530Z,99360.39
2023-01-10T12:25:16.299Z,99370.00
2023-01-10T12:35:26.818Z,99371.64
2023-01-10T12:45:39.965Z,99381.59
2023-01-10T12:55:47.852Z,99394.20
2023-01-10T13:05:54.357Z,99403.86
2023-01-10T13:16:16.231Z,99422.61
2023-01-10T13:26:22.507Z,99453.64
2023-01-10T13:36:31.062Z,99467.92
2023-01-10T13:46:39.508Z,99480.63
2023-01-10T13:56:45.908Z,99494.50
2023-01-10T14:06:58.372Z,99501.61
2023-01-10T14:17:20.530Z,99510.63
2023-01-10T14:27:26.815Z,99519.03
2023-01-10T14:37:38.275Z,99526.33
2023-01-10T14:47:44.485Z,99532.72
2023-01-10T14:57:57.737Z,99535.25
2023-01-10T15:18:41.149Z,99572.09
2023-01-10T15:28:50.045Z,99588.36
2023-01-10T15:38:56.373Z,99592.71
2023-01-10T15:49:04.481Z,99609.59
2023-01-10T15:59:24.505Z,99613.70
2023-01-10T16:09:31.198Z,99614.20
2023-01-10T16:19:54.590Z,99627.47
2023-01-10T16:30:00.445Z,99640.27
2023-01-10T16:40:19.940Z,99629.48
2023-01-10T16:50:25.795Z,99639.44
2023-01-10T17:00:31.537Z,99652.67
2023-01-10T17:10:38.335Z,99662.98
2023-01-10T17:20:45.323Z,99679.13
2023-01-10T17:30:52.462Z,99694.80
2023-01-10T17:41:02.349Z,99701.86
2023-01-10T17:51:09.256Z,99703.45
2023-01-10T18:01:22.879Z,99707.64
2023-01-10T18:11:31.701Z,99726.00
2023-01-10T18:21:37.440Z,99735.42
2023-01-10T18:31:43.316Z,99741.48
2023-01-10T18:41:48.896Z,99748.41
2023-01-10T18:51:54.590Z,99759.65
2023-01-10T19:02:00.244Z,99766.19
2023-01-10T19:12:06.279Z,99773.71
2023-01-10T19:22:12.259Z,99785.72
2023-01-10T19:32:18.473Z,99793.62
2023-01-10T19:42:26.040Z,99795.70
2023-01-10T19:52:32.315Z,99802.44
2023-01-10T20:02:38.348Z,99800.85
2023-01-10T20:12:45.303Z,99795.71
2023-01-10T20:22:51.283Z,99790.36
2023-01-10T20:32:56.997Z,99799.27
2023-01-10T20:43:02.884Z,99800.04
2023-01-10T20:53:08.854Z,99803.88
2023-01-10T21:03:15.920Z,99804.71
2023-01-10T21:13:21.768Z,99804.89
2023-01-10T21:23:28.611Z,99809.83
2023-01-10T21:33:34.408Z,99811.66
2023-01-10T21:43:44.366Z,99816.34
2023-01-10T21:53:50.299Z,99825.68
2023-01-10T22:03:56.356Z,99826.03
2023-01-10T22:14:02.108Z,99830.52
2023-01-10T22:24:09.188Z,99837.98
2023-01-10T22:34:15.456Z,99835.80
2023-01-10T22:44:23.702Z,99834.25
2023-01-10T22:54:29.401Z,99835.52
2023-01-10T23:04:35.237Z,99843.44
2023-01-10T23:14:41.002Z,99849.03
2023-01-10T23:24:46.799Z,99840.65
2023-01-10T23:34:52.545Z,99848.07
2023-01-10T23:44:58.465Z,99847.21
2023-01-10T23:55:04.522Z,99843.65
